To NAV CANADA Home Page Login to a new session Search on AWWS site Feedback and Comments Disclaimer Vers la page française équivalente Tips FAQ What's new on the site To the Forecasts and Observations / NOTAM section To "File a Flight Plan" website Publications and other links Update of the User's profile FIC Telephone Numbers My Weather Data Folder Route Weather Data Regional Weather Data Local Weather Data To the Forecasts and Observations / NOTAM section
Request Generated 10/17/2017 at 01:53:36 UTC . Weather information available at that time is displayed.

METAR/TAF

CARTWRIGHT/NL    

METAR CWCA 170100Z 23005KT 210V270 15SM FEW025 FEW070 01/M00 A2977
RMK SC1AC1 SLP083=
METAR CWCA 170000Z 00000KT 15SM FEW025 FEW070 01/M00 A2976 RMK SC1AC1
SLP078=
METAR CWCA 162300Z 29005KT 15SM FEW025 FEW070 02/00 A2974 RMK SC1AC1
SLP073=

TAF CYCA 170139Z 1702/1714 ADVISORY OFFSITE 23005KT P6SM FEW025
FEW070
FM170500 26005KT P6SM SCT040 TEMPO 1705/1709 BKN040
RMK NXT FCST BY 170800Z=
Your time UTC time
Weather data provided by Environment Canada and NAV CANADA